sensor_id;sensor_type;location;lat;lon;timestamp;pressure;altitude;pressure_sealevel;temperature;humidity
18858;BME280;9558;50.178;8.370;2022-09-09T00:01:20;97765.16;;;15.23;100.00
18858;BME280;9558;50.178;8.370;2022-09-09T00:03:53;97752.34;;;15.21;100.00
18858;BME280;9558;50.178;8.370;2022-09-09T00:06:23;97756.53;;;15.22;100.00
18858;BME280;9558;50.178;8.370;2022-09-09T00:08:59;97749.72;;;15.21;100.00
18858;BME280;9558;50.178;8.370;2022-09-09T00:11:34;97752.34;;;15.21;100.00
18858;BME280;9558;50.178;8.370;2022-09-09T00:14:10;97748.34;;;15.18;100.00
18858;BME280;9558;50.178;8.370;2022-09-09T00:16:41;97745.97;;;15.17;100.00
18858;BME280;9558;50.178;8.370;2022-09-09T00:19:19;97745.38;;;15.15;100.00
18858;BME280;9558;50.178;8.370;2022-09-09T00:21:55;97746.81;;;15.11;100.00
18858;BME280;9558;50.178;8.370;2022-09-09T00:24:28;97756.09;;;15.07;100.00
18858;BME280;9558;50.178;8.370;2022-09-09T00:27:01;97750.69;;;15.01;100.00
18858;BME280;9558;50.178;8.370;2022-09-09T00:29:34;97744.91;;;14.99;100.00
18858;BME280;9558;50.178;8.370;2022-09-09T00:32:12;97741.72;;;14.97;100.00
18858;BME280;9558;50.178;8.370;2022-09-09T00:34:43;97747.34;;;14.94;100.00
18858;BME280;9558;50.178;8.370;2022-09-09T00:37:10;97756.03;;;14.88;100.00
18858;BME280;9558;50.178;8.370;2022-09-09T00:39:39;97755.88;;;14.83;100.00
18858;BME280;9558;50.178;8.370;2022-09-09T00:42:14;97748.69;;;14.78;100.00
18858;BME280;9558;50.178;8.370;2022-09-09T00:44:51;97745.50;;;14.76;100.00
18858;BME280;9558;50.178;8.370;2022-09-09T00:47:31;97753.94;;;14.72;100.00
18858;BME280;9558;50.178;8.370;2022-09-09T00:50:15;97751.75;;;14.68;100.00
18858;BME280;9558;50.178;8.370;2022-09-09T00:52:48;97756.41;;;14.66;100.00
18858;BME280;9558;50.178;8.370;2022-09-09T00:55:25;97750.84;;;14.56;100.00
18858;BME280;9558;50.178;8.370;2022-09-09T00:57:56;97755.09;;;14.50;100.00
18858;BME280;9558;50.178;8.370;2022-09-09T01:00:24;97750.09;;;14.49;100.00
18858;BME280;9558;50.178;8.370;2022-09-09T01:03:06;97756.94;;;14.43;100.00
18858;BME280;9558;50.178;8.370;2022-09-09T01:05:41;97750.16;;;14.35;100.00
18858;BME280;9558;50.178;8.370;2022-09-09T01:08:23;97749.56;;;14.33;100.00
18858;BME280;9558;50.178;8.370;2022-09-09T01:10:54;97750.56;;;14.32;100.00
18858;BME280;9558;50.178;8.370;2022-09-09T01:13:24;97744.59;;;14.32;100.00
18858;BME280;9558;50.178;8.370;2022-09-09T01:15:53;97739.41;;;14.25;100.00
18858;BME280;9558;50.178;8.370;2022-09-09T01:18:22;97747.44;;;14.24;100.00
18858;BME280;9558;50.178;8.370;2022-09-09T01:20:55;97750.66;;;14.19;100.00
18858;BME280;9558;50.178;8.370;2022-09-09T01:23:45;97761.47;;;14.16;100.00
18858;BME280;9558;50.178;8.370;2022-09-09T01:26:21;97758.50;;;14.12;100.00
18858;BME280;9558;50.178;8.370;2022-09-09T01:28:52;97762.91;;;14.12;100.00
18858;BME280;9558;50.178;8.370;2022-09-09T01:31:20;97752.72;;;14.10;100.00
18858;BME280;9558;50.178;8.370;2022-09-09T01:33:48;97753.91;;;14.08;100.00
18858;BME280;9558;50.178;8.370;2022-09-09T01:36:20;97756.53;;;14.08;100.00
18858;BME280;9558;50.178;8.370;2022-09-09T01:38:48;97749.13;;;14.05;100.00
18858;BME280;9558;50.178;8.370;2022-09-09T01:41:14;97751.91;;;14.03;100.00
18858;BME280;9558;50.178;8.370;2022-09-09T01:43:42;97747.75;;;14.02;100.00
18858;BME280;9558;50.178;8.370;2022-09-09T01:46:09;97746.34;;;13.99;100.00
18858;BME280;9558;50.178;8.370;2022-09-09T01:48:36;97750.94;;;13.97;100.00
18858;BME280;9558;50.178;8.370;2022-09-09T01:51:03;97750.38;;;13.95;100.00
18858;BME280;9558;50.178;8.370;2022-09-09T01:53:30;97752.38;;;13.93;100.00
18858;BME280;9558;50.178;8.370;2022-09-09T01:56:04;97746.00;;;13.89;100.00
18858;BME280;9558;50.178;8.370;2022-09-09T01:58:44;97749.59;;;13.88;100.00
18858;BME280;9558;50.178;8.370;2022-09-09T02:01:17;97744.41;;;13.88;100.00
18858;BME280;9558;50.178;8.370;2022-09-09T02:03:52;97736.00;;;13.86;100.00
18858;BME280;9558;50.178;8.370;2022-09-09T02:06:26;97749.41;;;13.83;100.00
18858;BME280;9558;50.178;8.370;2022-09-09T02:08:55;97742.84;;;13.80;100.00
18858;BME280;9558;50.178;8.370;2022-09-09T02:11:24;97751.63;;;13.79;100.00
18858;BME280;9558;50.178;8.370;2022-09-09T02:13:54;97757.03;;;13.78;100.00
18858;BME280;9558;50.178;8.370;2022-09-09T02:16:25;97761.25;;;13.79;100.00
18858;BME280;9558;50.178;8.370;2022-09-09T02:18:56;97763.03;;;13.78;100.00
18858;BME280;9558;50.178;8.370;2022-09-09T02:21:26;97759.22;;;13.81;100.00
18858;BME280;9558;50.178;8.370;2022-09-09T02:23:55;97762.41;;;13.83;100.00
18858;BME280;9558;50.178;8.370;2022-09-09T02:26:23;97764.00;;;13.84;100.00
18858;BME280;9558;50.178;8.370;2022-09-09T02:28:51;97763.38;;;13.89;100.00
18858;BME280;9558;50.178;8.370;2022-09-09T02:31:22;97765.00;;;13.90;100.00
18858;BME280;9558;50.178;8.370;2022-09-09T02:33:53;97768.00;;;13.93;100.00
18858;BME280;9558;50.178;8.370;2022-09-09T02:36:22;97765.19;;;13.95;100.00
18858;BME280;9558;50.178;8.370;2022-09-09T02:38:50;97765.97;;;13.95;100.00
18858;BME280;9558;50.178;8.370;2022-09-09T02:41:20;97763.16;;;13.97;100.00
18858;BME280;9558;50.178;8.370;2022-09-09T02:43:49;97765.56;;;13.98;100.00
18858;BME280;9558;50.178;8.370;2022-09-09T02:46:27;97759.53;;;14.05;100.00
18858;BME280;9558;50.178;8.370;2022-09-09T02:49:00;97758.31;;;14.07;100.00
18858;BME280;9558;50.178;8.370;2022-09-09T02:51:33;97750.91;;;14.11;100.00
18858;BME280;9558;50.178;8.370;2022-09-09T02:54:04;97739.66;;;14.17;100.00
18858;BME280;9558;50.178;8.370;2022-09-09T02:56:39;97731.25;;;14.15;100.00
18858;BME280;9558;50.178;8.370;2022-09-09T02:59:07;97731.06;;;14.16;100.00
18858;BME280;9558;50.178;8.370;2022-09-09T03:01:35;97734.88;;;14.14;100.00
18858;BME280;9558;50.178;8.370;2022-09-09T03:04:02;97738.25;;;14.14;100.00
18858;BME280;9558;50.178;8.370;2022-09-09T03:06:30;97735.06;;;14.12;100.00
18858;BME280;9558;50.178;8.370;2022-09-09T03:08:56;97741.28;;;14.11;100.00
18858;BME280;9558;50.178;8.370;2022-09-09T03:11:26;97739.88;;;14.09;100.00
18858;BME280;9558;50.178;8.370;2022-09-09T03:13:53;97743.31;;;14.09;100.00
18858;BME280;9558;50.178;8.370;2022-09-09T03:16:21;97737.88;;;14.11;100.00
18858;BME280;9558;50.178;8.370;2022-09-09T03:18:48;97744.09;;;14.10;100.00
18858;BME280;9558;50.178;8.370;2022-09-09T03:21:15;97737.88;;;14.11;100.00
18858;BME280;9558;50.178;8.370;2022-09-09T03:23:42;97738.47;;;14.13;100.00
18858;BME280;9558;50.178;8.370;2022-09-09T03:26:10;97732.69;;;14.11;100.00
18858;BME280;9558;50.178;8.370;2022-09-09T03:28:36;97739.84;;;14.15;100.00
18858;BME280;9558;50.178;8.370;2022-09-09T03:31:04;97740.28;;;14.12;100.00
18858;BME280;9558;50.178;8.370;2022-09-09T03:33:31;97738.47;;;14.13;100.00
18858;BME280;9558;50.178;8.370;2022-09-09T03:36:01;97750.25;;;14.15;100.00
18858;BME280;9558;50.178;8.370;2022-09-09T03:38:27;97747.88;;;14.14;100.00
18858;BME280;9558;50.178;8.370;2022-09-09T03:40:55;97751.06;;;14.16;100.00
18858;BME280;9558;50.178;8.370;2022-09-09T03:43:23;97751.06;;;14.16;100.00
18858;BME280;9558;50.178;8.370;2022-09-09T03:45:50;97759.47;;;14.18;100.00
18858;BME280;9558;50.178;8.370;2022-09-09T03:48:17;97751.84;;;14.23;100.00
18858;BME280;9558;50.178;8.370;2022-09-09T03:50:44;97748.81;;;14.26;100.00
18858;BME280;9558;50.178;8.370;2022-09-09T03:53:12;97753.38;;;14.31;100.00
18858;BME280;9558;50.178;8.370;2022-09-09T03:55:38;97746.91;;;14.40;100.00
18858;BME280;9558;50.178;8.370;2022-09-09T03:58:06;97747.50;;;14.42;100.00
18858;BME280;9558;50.178;8.370;2022-09-09T04:00:33;97748.91;;;14.45;100.00
18858;BME280;9558;50.178;8.370;2022-09-09T04:02:59;97744.88;;;14.49;100.00
18858;BME280;9558;50.178;8.370;2022-09-09T04:05:26;97734.03;;;14.52;100.00
18858;BME280;9558;50.178;8.370;2022-09-09T04:07:52;97732.63;;;14.56;100.00
18858;BME280;9558;50.178;8.370;2022-09-09T04:10:20;97740.38;;;14.63;100.00
18858;BME280;9558;50.178;8.370;2022-09-09T04:12:47;97727.53;;;14.68;100.00
18858;BME280;9558;50.178;8.370;2022-09-09T04:15:13;97725.91;;;14.74;100.00
18858;BME280;9558;50.178;8.370;2022-09-09T04:17:40;97727.06;;;14.78;100.00
18858;BME280;9558;50.178;8.370;2022-09-09T04:20:07;97726.63;;;14.81;100.00
18858;BME280;9558;50.178;8.370;2022-09-09T04:22:36;97727.00;;;14.84;100.00
18858;BME280;9558;50.178;8.370;2022-09-09T04:25:04;97721.16;;;14.89;100.00
18858;BME280;9558;50.178;8.370;2022-09-09T04:27:32;97714.13;;;14.90;100.00
18858;BME280;9558;50.178;8.370;2022-09-09T04:29:59;97709.31;;;14.93;100.00
18858;BME280;9558;50.178;8.370;2022-09-09T04:32:26;97708.88;;;14.96;100.00
18858;BME280;9558;50.178;8.370;2022-09-09T04:34:53;97702.41;;;14.99;100.00
18858;BME280;9558;50.178;8.370;2022-09-09T04:37:19;97713.66;;;14.99;100.00
18858;BME280;9558;50.178;8.370;2022-09-09T04:39:46;97719.44;;;15.01;100.00
18858;BME280;9558;50.178;8.370;2022-09-09T04:42:12;97723.84;;;15.01;100.00
18858;BME280;9558;50.178;8.370;2022-09-09T04:44:40;97724.81;;;15.07;100.00
18858;BME280;9558;50.178;8.370;2022-09-09T04:47:07;97735.22;;;15.07;100.00
18858;BME280;9558;50.178;8.370;2022-09-09T04:49:33;97743.19;;;15.12;100.00
18858;BME280;9558;50.178;8.370;2022-09-09T04:51:59;97736.41;;;15.11;100.00
18858;BME280;9558;50.178;8.370;2022-09-09T04:54:26;97734.81;;;15.10;100.00
18858;BME280;9558;50.178;8.370;2022-09-09T04:56:52;97745.22;;;15.10;100.00
18858;BME280;9558;50.178;8.370;2022-09-09T04:59:19;97741.00;;;15.09;100.00
18858;BME280;9558;50.178;8.370;2022-09-09T05:01:48;97735.59;;;15.10;100.00
18858;BME280;9558;50.178;8.370;2022-09-09T05:04:15;97735.59;;;15.10;100.00
18858;BME280;9558;50.178;8.370;2022-09-09T05:06:41;97734.38;;;15.13;100.00
18858;BME280;9558;50.178;8.370;2022-09-09T05:09:08;97737.78;;;15.13;100.00
18858;BME280;9558;50.178;8.370;2022-09-09T05:11:35;97742.19;;;15.13;100.00
18858;BME280;9558;50.178;8.370;2022-09-09T05:14:03;97735.97;;;15.14;100.00
18858;BME280;9558;50.178;8.370;2022-09-09T05:16:31;97743.94;;;15.19;100.00
18858;BME280;9558;50.178;8.370;2022-09-09T05:18:58;97759.78;;;15.17;100.00
18858;BME280;9558;50.178;8.370;2022-09-09T05:21:25;97762.19;;;15.19;100.00
18858;BME280;9558;50.178;8.370;2022-09-09T05:23:53;97763.63;;;15.15;100.00
18858;BME280;9558;50.178;8.370;2022-09-09T05:26:21;97765.81;;;15.18;100.00
18858;BME280;9558;50.178;8.370;2022-09-09T05:28:49;97761.59;;;15.17;100.00
18858;BME280;9558;50.178;8.370;2022-09-09T05:31:17;97761.59;;;15.17;100.00
18858;BME280;9558;50.178;8.370;2022-09-09T05:33:45;97768.41;;;15.18;100.00
18858;BME280;9558;50.178;8.370;2022-09-09T05:36:14;97769.19;;;15.18;100.00
18858;BME280;9558;50.178;8.370;2022-09-09T05:38:42;97778.84;;;15.18;100.00
18858;BME280;9558;50.178;8.370;2022-09-09T05:41:10;97779.63;;;15.18;100.00
18858;BME280;9558;50.178;8.370;2022-09-09T05:43:37;97783.25;;;15.17;100.00
18858;BME280;9558;50.178;8.370;2022-09-09T05:46:05;97785.66;;;15.19;100.00
18858;BME280;9558;50.178;8.370;2022-09-09T05:48:33;97787.81;;;15.22;100.00
18858;BME280;9558;50.178;8.370;2022-09-09T05:51:00;97782.41;;;15.24;100.00
18858;BME280;9558;50.178;8.370;2022-09-09T05:53:30;97790.34;;;15.29;100.00
18858;BME280;9558;50.178;8.370;2022-09-09T05:56:00;97795.09;;;15.38;100.00
18858;BME280;9558;50.178;8.370;2022-09-09T05:58:29;97788.59;;;15.48;100.00
18858;BME280;9558;50.178;8.370;2022-09-09T06:01:00;97797.72;;;15.57;100.00
18858;BME280;9558;50.178;8.370;2022-09-09T06:03:27;97800.03;;;15.65;100.00
18858;BME280;9558;50.178;8.370;2022-09-09T06:05:58;97799.59;;;15.68;100.00
18858;BME280;9558;50.178;8.370;2022-09-09T06:08:25;97800.34;;;15.76;100.00
18858;BME280;9558;50.178;8.370;2022-09-09T06:10:53;97798.25;;;15.84;100.00
18858;BME280;9558;50.178;8.370;2022-09-09T06:13:21;97799.78;;;15.92;100.00
18858;BME280;9558;50.178;8.370;2022-09-09T06:15:50;97799.91;;;15.97;100.00
18858;BME280;9558;50.178;8.370;2022-09-09T06:18:17;97794.47;;;15.99;100.00
18858;BME280;9558;50.178;8.370;2022-09-09T06:20:53;97790.41;;;16.03;100.00
18858;BME280;9558;50.178;8.370;2022-09-09T06:23:20;97788.72;;;16.09;100.00
18858;BME280;9558;50.178;8.370;2022-09-09T06:25:46;97790.69;;;16.13;100.00
18858;BME280;9558;50.178;8.370;2022-09-09T06:28:15;97792.66;;;16.18;100.00
18858;BME280;9558;50.178;8.370;2022-09-09T06:30:43;97789.38;;;16.22;100.00
18858;BME280;9558;50.178;8.370;2022-09-09T06:33:09;97795.31;;;16.30;100.00
18858;BME280;9558;50.178;8.370;2022-09-09T06:35:36;97794.84;;;16.33;100.00
18858;BME280;9558;50.178;8.370;2022-09-09T06:38:02;97795.78;;;16.38;100.00
18858;BME280;9558;50.178;8.370;2022-09-09T06:40:29;97793.31;;;16.44;100.00
18858;BME280;9558;50.178;8.370;2022-09-09T06:42:59;97792.88;;;16.47;100.00
18858;BME280;9558;50.178;8.370;2022-09-09T06:45:27;97794.25;;;16.49;100.00
18858;BME280;9558;50.178;8.370;2022-09-09T06:47:54;97794.03;;;16.51;100.00
18858;BME280;9558;50.178;8.370;2022-09-09T06:50:21;97794.59;;;16.53;100.00
18858;BME280;9558;50.178;8.370;2022-09-09T06:52:47;97799.47;;;16.49;100.00
18858;BME280;9558;50.178;8.370;2022-09-09T06:55:14;97800.13;;;16.45;100.00
18858;BME280;9558;50.178;8.370;2022-09-09T06:57:43;97802.03;;;16.37;100.00
18858;BME280;9558;50.178;8.370;2022-09-09T07:00:11;97795.69;;;16.33;100.00
18858;BME280;9558;50.178;8.370;2022-09-09T07:02:40;97801.31;;;16.30;100.00
18858;BME280;9558;50.178;8.370;2022-09-09T07:05:07;97799.38;;;16.26;100.00
18858;BME280;9558;50.178;8.370;2022-09-09T07:07:34;97801.03;;;16.20;100.00
18858;BME280;9558;50.178;8.370;2022-09-09T07:10:02;97803.66;;;16.20;100.00
18858;BME280;9558;50.178;8.370;2022-09-09T07:12:29;97808.75;;;16.15;100.00
18858;BME280;9558;50.178;8.370;2022-09-09T07:14:56;97807.16;;;16.14;100.00
18858;BME280;9558;50.178;8.370;2022-09-09T07:17:22;97813.53;;;16.18;100.00
18858;BME280;9558;50.178;8.370;2022-09-09T07:19:50;97815.09;;;16.19;100.00
18858;BME280;9558;50.178;8.370;2022-09-09T07:22:17;97812.19;;;16.27;100.00
18858;BME280;9558;50.178;8.370;2022-09-09T07:24:45;97812.59;;;16.42;100.00
18858;BME280;9558;50.178;8.370;2022-09-09T07:27:12;97809.09;;;16.49;100.00
18858;BME280;9558;50.178;8.370;2022-09-09T07:29:38;97806.63;;;16.54;100.00
18858;BME280;9558;50.178;8.370;2022-09-09T07:32:05;97811.41;;;16.57;100.00
18858;BME280;9558;50.178;8.370;2022-09-09T07:34:31;97811.66;;;16.67;100.00
18858;BME280;9558;50.178;8.370;2022-09-09T07:37:00;97816.56;;;16.75;99.83
18858;BME280;9558;50.178;8.370;2022-09-09T07:39:26;97820.63;;;17.02;99.38
18858;BME280;9558;50.178;8.370;2022-09-09T07:41:53;97817.00;;;17.15;99.11
18858;BME280;9558;50.178;8.370;2022-09-09T07:44:21;97821.81;;;17.18;97.80
18858;BME280;9558;50.178;8.370;2022-09-09T07:46:50;97814.63;;;17.37;97.26
18858;BME280;9558;50.178;8.370;2022-09-09T07:49:16;97818.84;;;17.50;96.25
18858;BME280;9558;50.178;8.370;2022-09-09T07:51:45;97823.03;;;17.62;95.26
18858;BME280;9558;50.178;8.370;2022-09-09T07:54:16;97824.50;;;17.70;94.64
18858;BME280;9558;50.178;8.370;2022-09-09T07:56:45;97831.69;;;17.75;94.86
18858;BME280;9558;50.178;8.370;2022-09-09T07:59:12;97830.41;;;17.77;94.58
18858;BME280;9558;50.178;8.370;2022-09-09T08:01:39;97826.78;;;17.78;94.26
18858;BME280;9558;50.178;8.370;2022-09-09T08:04:08;97836.09;;;17.74;93.28
18858;BME280;9558;50.178;8.370;2022-09-09T08:06:36;97837.59;;;17.70;92.90
18858;BME280;9558;50.178;8.370;2022-09-09T08:09:03;97845.22;;;17.60;93.21
18858;BME280;9558;50.178;8.370;2022-09-09T08:11:31;97844.00;;;17.51;93.27
18858;BME280;9558;50.178;8.370;2022-09-09T08:13:58;97841.13;;;17.40;93.63
18858;BME280;9558;50.178;8.370;2022-09-09T08:16:26;97841.25;;;17.34;93.66
18858;BME280;9558;50.178;8.370;2022-09-09T08:18:53;97838.97;;;17.25;93.79
18858;BME280;9558;50.178;8.370;2022-09-09T08:21:21;97845.34;;;17.18;94.35
18858;BME280;9558;50.178;8.370;2022-09-09T08:23:50;97834.28;;;17.16;94.89
18858;BME280;9558;50.178;8.370;2022-09-09T08:26:18;97837.91;;;17.15;94.71
18858;BME280;9558;50.178;8.370;2022-09-09T08:28:49;97845.75;;;17.15;94.76
18858;BME280;9558;50.178;8.370;2022-09-09T08:31:18;97837.91;;;17.15;95.03
18858;BME280;9558;50.178;8.370;2022-09-09T08:33:46;97851.13;;;17.20;94.62
18858;BME280;9558;50.178;8.370;2022-09-09T08:36:15;97854.19;;;17.28;94.47
18858;BME280;9558;50.178;8.370;2022-09-09T08:38:42;97853.88;;;17.25;93.91
18858;BME280;9558;50.178;8.370;2022-09-09T08:41:32;97848.75;;;17.30;94.19
18858;BME280;9558;50.178;8.370;2022-09-09T08:44:06;97849.31;;;17.32;93.73
18858;BME280;9558;50.178;8.370;2022-09-09T08:46:41;97845.66;;;17.33;93.93
18858;BME280;9558;50.178;8.370;2022-09-09T08:49:23;97833.19;;;17.35;93.78
18858;BME280;9558;50.178;8.370;2022-09-09T08:51:53;97842.25;;;17.33;93.51
18858;BME280;9558;50.178;8.370;2022-09-09T08:54:23;97848.19;;;17.28;93.78
18858;BME280;9558;50.178;8.370;2022-09-09T08:56:50;97857.94;;;17.21;94.25
18858;BME280;9558;50.178;8.370;2022-09-09T08:59:18;97860.56;;;17.21;94.29
18858;BME280;9558;50.178;8.370;2022-09-09T09:01:55;97847.59;;;17.26;94.63
18858;BME280;9558;50.178;8.370;2022-09-09T09:04:38;97850.91;;;17.33;94.83
18858;BME280;9558;50.178;8.370;2022-09-09T09:07:16;97855.25;;;17.39;94.96
18858;BME280;9558;50.178;8.370;2022-09-09T09:09:55;97859.00;;;17.43;94.72
18858;BME280;9558;50.178;8.370;2022-09-09T09:12:26;97863.19;;;17.44;94.59
18858;BME280;9558;50.178;8.370;2022-09-09T09:14:55;97860.25;;;17.53;94.29
18858;BME280;9558;50.178;8.370;2022-09-09T09:17:25;97847.28;;;17.58;93.90
18858;BME280;9558;50.178;8.370;2022-09-09T09:19:53;97847.97;;;17.65;92.30
18858;BME280;9558;50.178;8.370;2022-09-09T09:22:22;97851.34;;;17.77;92.85
18858;BME280;9558;50.178;8.370;2022-09-09T09:24:52;97856.38;;;17.91;92.08
18858;BME280;9558;50.178;8.370;2022-09-09T09:27:27;97853.41;;;17.99;90.36
18858;BME280;9558;50.178;8.370;2022-09-09T09:29:59;97860.44;;;18.10;91.02
18858;BME280;9558;50.178;8.370;2022-09-09T09:32:30;97854.00;;;18.30;90.11
18858;BME280;9558;50.178;8.370;2022-09-09T09:35:01;97858.22;;;18.60;87.77
18858;BME280;9558;50.178;8.370;2022-09-09T09:37:31;97859.84;;;18.78;86.98
18858;BME280;9558;50.178;8.370;2022-09-09T09:40:08;97845.84;;;19.01;87.48
18858;BME280;9558;50.178;8.370;2022-09-09T09:42:35;97844.50;;;19.15;87.70
18858;BME280;9558;50.178;8.370;2022-09-09T09:45:15;97843.53;;;19.22;86.18
18858;BME280;9558;50.178;8.370;2022-09-09T09:47:43;97845.69;;;19.25;83.74
18858;BME280;9558;50.178;8.370;2022-09-09T09:50:16;97842.59;;;19.28;85.16
18858;BME280;9558;50.178;8.370;2022-09-09T09:52:53;97849.66;;;19.27;83.05
18858;BME280;9558;50.178;8.370;2022-09-09T09:55:20;97849.59;;;19.39;82.47
18858;BME280;9558;50.178;8.370;2022-09-09T09:57:48;97851.25;;;19.45;80.96
18858;BME280;9558;50.178;8.370;2022-09-09T10:00:18;97846.47;;;19.59;81.40
18858;BME280;9558;50.178;8.370;2022-09-09T10:02:46;97850.00;;;19.70;81.25
18858;BME280;9558;50.178;8.370;2022-09-09T10:05:15;97849.06;;;19.76;78.97
18858;BME280;9558;50.178;8.370;2022-09-09T10:07:42;97843.56;;;19.78;75.41
18858;BME280;9558;50.178;8.370;2022-09-09T10:10:15;97845.56;;;19.71;76.35
18858;BME280;9558;50.178;8.370;2022-09-09T10:12:50;97836.47;;;19.78;78.38
18858;BME280;9558;50.178;8.370;2022-09-09T10:15:34;97841.25;;;19.81;76.77
18858;BME280;9558;50.178;8.370;2022-09-09T10:18:17;97834.56;;;19.91;75.59
18858;BME280;9558;50.178;8.370;2022-09-09T10:20:54;97824.34;;;19.94;75.58
18858;BME280;9558;50.178;8.370;2022-09-09T10:23:34;97814.28;;;20.08;75.04
18858;BME280;9558;50.178;8.370;2022-09-09T10:26:17;97812.31;;;20.20;73.88
18858;BME280;9558;50.178;8.370;2022-09-09T10:29:23;97810.97;;;20.45;72.18
18858;BME280;9558;50.178;8.370;2022-09-09T10:32:02;97813.50;;;20.62;69.20
18858;BME280;9558;50.178;8.370;2022-09-09T10:34:55;97809.13;;;20.68;69.68
18858;BME280;9558;50.178;8.370;2022-09-09T10:37:34;97809.72;;;20.80;69.54
18858;BME280;9558;50.178;8.370;2022-09-09T10:40:17;97795.41;;;20.98;70.93
18858;BME280;9558;50.178;8.370;2022-09-09T10:42:45;97802.03;;;21.06;69.21
18858;BME280;9558;50.178;8.370;2022-09-09T10:45:17;97794.19;;;21.11;65.79
18858;BME280;9558;50.178;8.370;2022-09-09T10:48:09;97792.09;;;21.13;66.66
18858;BME280;9558;50.178;8.370;2022-09-09T10:50:46;97797.09;;;21.10;64.98
18858;BME280;9558;50.178;8.370;2022-09-09T10:53:24;97801.31;;;21.11;63.33
18858;BME280;9558;50.178;8.370;2022-09-09T10:55:59;97802.59;;;21.08;65.16
18858;BME280;9558;50.178;8.370;2022-09-09T10:58:31;97803.69;;;21.12;61.62
18858;BME280;9558;50.178;8.370;2022-09-09T11:01:08;97803.75;;;21.22;62.24
18858;BME280;9558;50.178;8.370;2022-09-09T11:03:39;97821.97;;;21.34;62.63
18858;BME280;9558;50.178;8.370;2022-09-09T11:06:12;97808.03;;;21.34;60.78
18858;BME280;9558;50.178;8.370;2022-09-09T11:08:41;97813.66;;;21.48;61.04
18858;BME280;9558;50.178;8.370;2022-09-09T11:11:11;97811.31;;;21.51;58.96
18858;BME280;9558;50.178;8.370;2022-09-09T11:13:45;97810.19;;;21.42;58.40
18858;BME280;9558;50.178;8.370;2022-09-09T11:16:24;97808.09;;;21.44;59.31
18858;BME280;9558;50.178;8.370;2022-09-09T11:18:58;97804.13;;;21.41;58.70
18858;BME280;9558;50.178;8.370;2022-09-09T11:21:29;97804.41;;;21.45;58.59
18858;BME280;9558;50.178;8.370;2022-09-09T11:24:04;97794.13;;;21.44;58.39
18858;BME280;9558;50.178;8.370;2022-09-09T11:26:38;97815.94;;;21.34;56.31
18858;BME280;9558;50.178;8.370;2022-09-09T11:29:23;97796.63;;;21.23;58.20
18858;BME280;9558;50.178;8.370;2022-09-09T11:32:03;97797.91;;;21.15;57.29
18858;BME280;9558;50.178;8.370;2022-09-09T11:34:44;97791.75;;;20.99;56.66
18858;BME280;9558;50.178;8.370;2022-09-09T11:37:27;97805.06;;;20.87;56.14
18858;BME280;9558;50.178;8.370;2022-09-09T11:40:19;97798.72;;;20.83;55.50
18858;BME280;9558;50.178;8.370;2022-09-09T11:42:46;97811.06;;;20.78;57.34
18858;BME280;9558;50.178;8.370;2022-09-09T11:45:24;97802.91;;;20.79;56.74
18858;BME280;9558;50.178;8.370;2022-09-09T11:47:55;97800.53;;;20.78;56.43
18858;BME280;9558;50.178;8.370;2022-09-09T11:50:37;97801.72;;;20.65;57.65
18858;BME280;9558;50.178;8.370;2022-09-09T11:53:19;97811.50;;;20.69;57.66
18858;BME280;9558;50.178;8.370;2022-09-09T11:56:01;97799.91;;;20.70;59.31
18858;BME280;9558;50.178;8.370;2022-09-09T11:58:30;97812.94;;;20.82;60.10
18858;BME280;9558;50.178;8.370;2022-09-09T12:00:59;97806.66;;;20.88;59.56
18858;BME280;9558;50.178;8.370;2022-09-09T12:03:35;97813.50;;;20.89;58.32
18858;BME280;9558;50.178;8.370;2022-09-09T12:06:15;97815.56;;;20.82;57.41
18858;BME280;9558;50.178;8.370;2022-09-09T12:08:46;97806.53;;;20.73;58.93
18858;BME280;9558;50.178;8.370;2022-09-09T12:11:24;97812.69;;;20.62;58.66
18858;BME280;9558;50.178;8.370;2022-09-09T12:13:53;97815.81;;;20.53;59.53
18858;BME280;9558;50.178;8.370;2022-09-09T12:16:29;97810.03;;;20.57;60.14
18858;BME280;9558;50.178;8.370;2022-09-09T12:19:07;97811.13;;;20.61;60.64
18858;BME280;9558;50.178;8.370;2022-09-09T12:21:45;97803.72;;;20.58;59.65
18858;BME280;9558;50.178;8.370;2022-09-09T12:24:20;97796.34;;;20.54;59.48
18858;BME280;9558;50.178;8.370;2022-09-09T12:26:54;97801.59;;;20.54;60.26
18858;BME280;9558;50.178;8.370;2022-09-09T12:29:28;97800.66;;;20.38;59.96
18858;BME280;9558;50.178;8.370;2022-09-09T12:32:05;97806.56;;;20.24;60.66
18858;BME280;9558;50.178;8.370;2022-09-09T12:34:38;97806.25;;;20.20;61.39
18858;BME280;9558;50.178;8.370;2022-09-09T12:37:26;97798.63;;;20.18;63.38
18858;BME280;9558;50.178;8.370;2022-09-09T12:39:55;97794.06;;;20.36;62.65
18858;BME280;9558;50.178;8.370;2022-09-09T12:42:23;97793.38;;;20.46;62.41
18858;BME280;9558;50.178;8.370;2022-09-09T12:44:54;97783.25;;;20.60;61.71
18858;BME280;9558;50.178;8.370;2022-09-09T12:47:25;97788.09;;;20.73;62.18
18858;BME280;9558;50.178;8.370;2022-09-09T12:49:55;97784.56;;;20.89;61.75
18858;BME280;9558;50.178;8.370;2022-09-09T12:52:28;97794.06;;;20.91;61.99
18858;BME280;9558;50.178;8.370;2022-09-09T12:54:57;97797.28;;;20.98;62.21
18858;BME280;9558;50.178;8.370;2022-09-09T12:57:26;97793.69;;;21.14;62.53
18858;BME280;9558;50.178;8.370;2022-09-09T13:00:15;97781.66;;;21.29;61.80
18858;BME280;9558;50.178;8.370;2022-09-09T13:02:49;97789.00;;;21.21;59.47
18858;BME280;9558;50.178;8.370;2022-09-09T13:05:19;97793.75;;;21.24;60.34
18858;BME280;9558;50.178;8.370;2022-09-09T13:07:47;97788.78;;;21.28;61.06
18858;BME280;9558;50.178;8.370;2022-09-09T13:10:21;97782.69;;;21.28;60.57
18858;BME280;9558;50.178;8.370;2022-09-09T13:12:52;97776.38;;;21.23;60.14
18858;BME280;9558;50.178;8.370;2022-09-09T13:15:21;97760.59;;;21.23;59.39
18858;BME280;9558;50.178;8.370;2022-09-09T13:17:53;97763.19;;;21.18;58.50
18858;BME280;9558;50.178;8.370;2022-09-09T13:20:21;97769.22;;;21.14;57.83
18858;BME280;9558;50.178;8.370;2022-09-09T13:22:51;97761.59;;;21.12;58.71
18858;BME280;9558;50.178;8.370;2022-09-09T13:25:21;97770.50;;;21.11;57.85